Time;durP1;ratioP1;P1;durP2;ratioP2;P2;SDS_P1;SDS_P2;PMS_P1;PMS_P2;Temp;Humidity;BMP_temperature;BMP_pressure;BME280_temperature;BME280_humidity;BME280_pressure;Samples;Min_cycle;Max_cycle;Signal;HPM_P1;HPM_P2
2023/03/19 00:01:11;;;;;;;7.65;3.03;;;8.20;99.90;;;;;;7277381;32;20126;-55
2023/03/19 00:05:13;;;;;;;5.65;2.92;;;8.30;99.90;;;;;;7275727;32;20101;-55
2023/03/19 00:09:15;;;;;;;8.48;3.75;;;8.30;99.90;;;;;;7275227;32;20240;-55
2023/03/19 00:13:18;;;;;;;5.82;2.87;;;8.40;99.90;;;;;;7279342;32;20211;-55
2023/03/19 00:17:20;;;;;;;10.05;3.53;;;8.40;99.90;;;;;;7272627;32;20101;-55
2023/03/19 00:21:22;;;;;;;8.68;3.53;;;8.50;99.90;;;;;;7281969;32;20115;-55
2023/03/19 00:25:26;;;;;;;10.15;3.72;;;8.40;99.90;;;;;;7280479;32;20240;-55
2023/03/19 00:29:28;;;;;;;5.57;3.08;;;8.50;99.90;;;;;;7276512;32;20261;-55
2023/03/19 00:33:30;;;;;;;8.60;3.22;;;8.40;99.90;;;;;;7277138;32;20092;-55
2023/03/19 00:37:32;;;;;;;8.25;2.75;;;8.40;99.90;;;;;;7279092;32;20558;-55
2023/03/19 00:41:34;;;;;;;6.80;3.12;;;8.30;99.90;;;;;;7279384;32;20108;-55
2023/03/19 00:45:35;;;;;;;4.00;2.55;;;8.10;99.90;;;;;;7277580;32;20745;-55
2023/03/19 00:49:37;;;;;;;5.53;2.70;;;8.10;99.90;;;;;;7283538;32;20154;-54
2023/03/19 00:53:41;;;;;;;9.57;3.17;;;8.00;99.90;;;;;;7284969;32;20108;-55
2023/03/19 00:57:42;;;;;;;8.02;2.87;;;7.90;99.90;;;;;;7281905;32;20247;-55
2023/03/19 01:01:44;;;;;;;10.30;3.47;;;7.80;99.90;;;;;;7287071;32;20192;-55
2023/03/19 01:05:48;;;;;;;5.22;3.03;;;7.70;99.90;;;;;;7278426;32;20116;-55
2023/03/19 01:09:49;;;;;;;7.00;2.90;;;7.60;99.90;;;;;;7277406;32;20593;-55
2023/03/19 01:13:51;;;;;;;5.07;3.20;;;7.60;99.90;;;;;;7276301;32;20127;-55
2023/03/19 01:17:53;;;;;;;4.50;3.03;;;7.50;99.90;;;;;;7277680;32;20108;-55
2023/03/19 01:21:54;;;;;;;4.07;2.95;;;7.40;99.90;;;;;;7281711;32;20580;-55
2023/03/19 01:25:57;;;;;;;7.75;3.03;;;7.30;99.90;;;;;;7277679;32;20169;-55
2023/03/19 01:29:59;;;;;;;7.82;3.42;;;7.20;99.90;;;;;;7277632;32;20466;-55
2023/03/19 01:34:01;;;;;;;8.80;3.28;;;7.20;99.90;;;;;;7283641;32;20150;-55
2023/03/19 01:38:02;;;;;;;7.22;3.10;;;7.10;99.90;;;;;;7286657;32;20116;-55
2023/03/19 01:42:05;;;;;;;9.82;4.18;;;7.10;99.90;;;;;;7275120;32;20108;-55
2023/03/19 01:46:24;;;;;;;7.62;3.17;;;7.20;99.90;;;;;;7280639;32;20118;-56
2023/03/19 01:50:38;;;;;;;7.10;3.20;;;7.10;99.90;;;;;;7288980;32;20122;-55
2023/03/19 01:54:40;;;;;;;5.55;3.78;;;7.10;99.90;;;;;;7282278;32;20127;-55
2023/03/19 01:58:45;;;;;;;4.95;2.95;;;7.10;99.90;;;;;;7276376;32;20490;-55
2023/03/19 02:02:51;;;;;;;6.85;3.33;;;7.00;99.90;;;;;;7275539;32;20103;-54
2023/03/19 02:06:57;;;;;;;6.07;3.08;;;6.90;99.90;;;;;;7276423;32;20662;-54
2023/03/19 02:11:00;;;;;;;6.85;3.50;;;6.80;99.90;;;;;;7279385;32;20249;-55
2023/03/19 02:15:02;;;;;;;7.80;3.80;;;6.80;99.90;;;;;;7278227;32;20245;-55
2023/03/19 02:19:08;;;;;;;5.20;3.45;;;6.70;99.90;;;;;;7284341;32;20190;-55
2023/03/19 02:23:31;;;;;;;6.13;3.40;;;6.70;99.90;;;;;;7280825;32;20667;-55
2023/03/19 02:27:33;;;;;;;12.75;3.80;;;6.60;99.90;;;;;;7287107;32;20120;-55
2023/03/19 02:31:35;;;;;;;9.40;3.80;;;6.60;99.90;;;;;;7275649;32;20159;-55
2023/03/19 02:35:37;;;;;;;7.32;4.07;;;6.70;99.90;;;;;;7276256;32;20259;-54
2023/03/19 02:40:03;;;;;;;6.47;4.28;;;6.70;99.90;;;;;;7278168;32;20533;-55
2023/03/19 02:44:06;;;;;;;7.22;3.85;;;6.80;99.90;;;;;;7273974;32;20257;-54
2023/03/19 02:48:08;;;;;;;9.32;4.10;;;6.90;99.90;;;;;;7279833;32;20142;-55
2023/03/19 02:52:10;;;;;;;10.23;4.40;;;7.00;99.90;;;;;;7277812;32;20235;-55
2023/03/19 02:56:12;;;;;;;7.53;3.70;;;7.10;99.90;;;;;;7278331;32;20096;-55
2023/03/19 03:00:16;;;;;;;6.75;3.58;;;7.20;99.90;;;;;;7278350;32;20131;-55
2023/03/19 03:04:18;;;;;;;9.55;3.70;;;7.30;99.90;;;;;;7275005;32;20439;-55
2023/03/19 03:08:19;;;;;;;5.18;3.67;;;7.30;99.90;;;;;;7285979;32;20504;-55
2023/03/19 03:12:21;;;;;;;9.90;4.12;;;7.50;99.90;;;;;;7277876;32;20231;-55
2023/03/19 03:16:24;;;;;;;5.68;3.72;;;7.70;99.90;;;;;;7278508;32;20179;-55
2023/03/19 03:20:26;;;;;;;10.95;3.55;;;7.80;99.90;;;;;;7276342;32;20632;-55
2023/03/19 03:24:28;;;;;;;6.90;3.92;;;7.90;99.90;;;;;;7286568;32;20175;-55
2023/03/19 03:28:30;;;;;;;7.85;3.80;;;8.00;99.90;;;;;;7285496;32;20616;-55
2023/03/19 03:32:31;;;;;;;6.62;4.40;;;8.10;99.90;;;;;;7268770;32;20118;-56
2023/03/19 03:36:33;;;;;;;7.93;3.22;;;8.30;99.90;;;;;;7274511;32;20199;-55
2023/03/19 03:40:36;;;;;;;6.35;3.85;;;8.30;99.90;;;;;;7279833;32;20123;-55
2023/03/19 03:44:38;;;;;;;5.43;3.47;;;8.40;99.90;;;;;;7274535;32;20183;-55
2023/03/19 03:48:40;;;;;;;8.18;3.28;;;8.40;99.90;;;;;;7281376;32;20132;-55
2023/03/19 03:52:41;;;;;;;8.48;3.70;;;8.50;99.90;;;;;;7278085;32;20101;-55
2023/03/19 03:56:43;;;;;;;7.07;3.70;;;8.50;99.90;;;;;;7275702;32;20321;-55
2023/03/19 04:00:46;;;;;;;7.22;3.05;;;8.60;99.90;;;;;;7280756;32;20104;-55
2023/03/19 04:04:48;;;;;;;6.10;3.50;;;8.70;99.90;;;;;;7277137;32;20112;-55
2023/03/19 04:08:50;;;;;;;5.80;3.00;;;8.80;99.90;;;;;;7284587;32;20479;-55
2023/03/19 04:12:52;;;;;;;5.57;2.80;;;8.80;99.90;;;;;;7281365;32;20468;-55
2023/03/19 04:16:54;;;;;;;9.82;3.37;;;8.90;99.90;;;;;;7282770;32;20133;-55
2023/03/19 04:20:56;;;;;;;5.30;3.22;;;9.00;99.90;;;;;;7290447;32;20243;-55
2023/03/19 04:24:58;;;;;;;6.68;3.08;;;9.00;99.90;;;;;;7281910;32;20150;-54
2023/03/19 04:29:00;;;;;;;9.57;3.12;;;9.10;99.90;;;;;;7284502;32;20446;-55
2023/03/19 04:33:03;;;;;;;7.32;3.35;;;9.40;99.90;;;;;;7283562;32;20175;-55
2023/03/19 04:37:05;;;;;;;9.77;3.12;;;9.40;99.90;;;;;;7281683;32;20122;-55
2023/03/19 04:41:07;;;;;;;7.50;3.20;;;9.40;99.90;;;;;;7283089;32;20113;-55
2023/03/19 04:45:10;;;;;;;6.40;2.92;;;9.40;99.90;;;;;;7268888;32;20525;-55
2023/03/19 04:49:12;;;;;;;4.68;2.92;;;9.60;99.90;;;;;;7279270;32;20266;-55
2023/03/19 04:53:13;;;;;;;7.22;2.90;;;9.60;99.90;;;;;;7282235;32;20187;-55
2023/03/19 04:57:15;;;;;;;3.87;2.50;;;9.70;99.90;;;;;;7279013;32;20123;-55
2023/03/19 05:01:17;;;;;;;6.85;2.65;;;9.50;99.90;;;;;;7284565;32;20211;-56
2023/03/19 05:05:19;;;;;;;4.97;2.60;;;9.60;99.90;;;;;;7276987;32;20274;-55
2023/03/19 05:09:20;;;;;;;6.03;2.60;;;9.60;99.90;;;;;;7283832;32;20146;-55
2023/03/19 05:13:22;;;;;;;6.47;2.42;;;9.80;99.90;;;;;;7281209;32;20648;-55
2023/03/19 05:17:24;;;;;;;5.05;2.65;;;9.70;99.90;;;;;;7276510;32;20128;-55
2023/03/19 05:21:26;;;;;;;9.57;2.60;;;9.70;99.90;;;;;;7281470;32;20780;-55
2023/03/19 05:25:29;;;;;;;3.97;2.40;;;9.70;99.90;;;;;;7284053;32;20172;-55
2023/03/19 05:29:30;;;;;;;4.93;2.60;;;9.70;99.90;;;;;;7279681;32;20104;-55
2023/03/19 05:33:32;;;;;;;6.25;2.90;;;9.70;99.90;;;;;;7285581;32;20211;-55
2023/03/19 05:37:34;;;;;;;5.15;2.42;;;9.90;99.90;;;;;;7282388;32;20127;-56
2023/03/19 05:41:36;;;;;;;5.47;2.78;;;9.90;99.90;;;;;;7282294;32;20126;-55
2023/03/19 05:45:37;;;;;;;3.83;2.12;;;10.00;99.90;;;;;;7281371;32;20530;-55
2023/03/19 05:49:39;;;;;;;4.95;2.50;;;10.00;99.90;;;;;;7273823;32;20983;-55
2023/03/19 05:53:41;;;;;;;4.22;2.42;;;9.90;99.90;;;;;;7275772;32;20596;-55
2023/03/19 05:57:42;;;;;;;4.30;2.15;;;9.90;99.90;;;;;;7281546;32;20108;-55
2023/03/19 06:01:44;;;;;;;5.68;2.58;;;10.10;99.90;;;;;;7282768;32;20675;-55
2023/03/19 06:05:49;;;;;;;4.45;2.20;;;10.00;99.90;;;;;;7273299;32;20132;-56
2023/03/19 06:09:51;;;;;;;5.10;2.83;;;10.00;99.90;;;;;;7273643;32;20223;-57
2023/03/19 06:13:52;;;;;;;3.58;2.78;;;10.10;99.90;;;;;;7284566;32;20770;-55
2023/03/19 06:17:54;;;;;;;5.60;2.30;;;10.10;99.90;;;;;;7277612;32;20104;-55
2023/03/19 06:21:56;;;;;;;5.70;2.55;;;10.20;99.90;;;;;;7274564;32;20148;-56
2023/03/19 06:25:58;;;;;;;5.72;2.40;;;10.40;99.90;;;;;;7283744;32;20119;-56
2023/03/19 06:29:59;;;;;;;5.90;2.30;;;10.40;99.90;;;;;;7275097;32;20187;-56
2023/03/19 06:34:01;;;;;;;4.37;2.33;;;10.40;99.90;;;;;;7282822;32;20105;-56
2023/03/19 06:38:03;;;;;;;6.62;2.30;;;10.40;99.90;;;;;;7284061;32;20112;-56
2023/03/19 06:42:04;;;;;;;5.97;2.20;;;10.60;99.90;;;;;;7279800;32;20131;-56
2023/03/19 06:46:07;;;;;;;3.75;2.00;;;10.60;99.90;;;;;;7273746;32;20100;-56
2023/03/19 06:50:15;;;;;;;4.55;2.37;;;10.70;99.90;;;;;;7280579;32;20210;-55
2023/03/19 06:54:16;;;;;;;7.65;2.35;;;10.60;99.90;;;;;;7280007;32;20111;-56
2023/03/19 06:58:18;;;;;;;5.07;2.03;;;10.60;99.90;;;;;;7279777;32;20289;-56
2023/03/19 07:02:21;;;;;;;4.68;2.22;;;10.60;99.90;;;;;;7276916;32;20100;-56
2023/03/19 07:06:22;;;;;;;5.68;2.50;;;10.60;99.90;;;;;;7281141;32;20127;-57
2023/03/19 07:10:24;;;;;;;4.18;2.40;;;10.60;99.90;;;;;;7281455;32;20217;-57
2023/03/19 07:14:26;;;;;;;4.75;2.70;;;10.50;99.90;;;;;;7279606;32;20217;-57
2023/03/19 07:18:28;;;;;;;7.07;2.47;;;10.50;99.90;;;;;;7285904;32;20502;-57
2023/03/19 07:22:30;;;;;;;6.45;2.35;;;10.60;99.90;;;;;;7287777;32;20253;-57
2023/03/19 07:26:32;;;;;;;7.05;2.55;;;10.70;99.90;;;;;;7280810;32;20180;-56
2023/03/19 07:30:34;;;;;;;3.80;2.35;;;10.80;99.90;;;;;;7286562;32;21110;-57
2023/03/19 07:34:36;;;;;;;7.22;2.70;;;11.00;99.90;;;;;;7278172;32;20209;-57
2023/03/19 07:38:38;;;;;;;4.32;2.45;;;11.10;99.90;;;;;;7267671;32;21326;-57
2023/03/19 07:42:40;;;;;;;4.47;2.17;;;11.20;99.90;;;;;;7279279;32;20219;-57
2023/03/19 07:46:43;;;;;;;4.07;2.55;;;11.20;99.90;;;;;;7282804;32;20754;-57
2023/03/19 07:50:45;;;;;;;3.90;2.12;;;11.20;99.90;;;;;;7284336;32;20621;-57
2023/03/19 07:54:46;;;;;;;3.25;1.60;;;11.20;99.90;;;;;;7283241;32;20146;-57
2023/03/19 07:58:48;;;;;;;4.97;1.98;;;11.20;99.90;;;;;;7286241;32;20097;-56
2023/03/19 08:02:50;;;;;;;3.45;1.73;;;11.20;99.90;;;;;;7285045;32;20273;-57
2023/03/19 08:06:52;;;;;;;4.57;2.00;;;11.20;99.90;;;;;;7273833;32;20215;-57
2023/03/19 08:10:55;;;;;;;2.90;2.00;;;11.20;99.90;;;;;;7275402;32;20119;-57
2023/03/19 08:14:56;;;;;;;3.28;2.08;;;11.30;99.90;;;;;;7274639;32;20131;-56
2023/03/19 08:18:58;;;;;;;4.40;1.85;;;11.50;99.90;;;;;;7280367;32;20206;-55
2023/03/19 08:23:00;;;;;;;3.40;2.50;;;11.50;99.90;;;;;;7280088;32;20293;-56
2023/03/19 08:27:02;;;;;;;3.62;2.30;;;11.50;99.90;;;;;;7272412;32;20104;-56
2023/03/19 08:31:12;;;;;;;3.00;2.00;;;11.70;99.90;;;;;;7273874;32;20350;-56
2023/03/19 08:35:14;;;;;;;4.97;1.85;;;11.90;99.90;;;;;;7273294;32;20447;-56
2023/03/19 08:39:16;;;;;;;4.43;2.37;;;11.90;99.90;;;;;;7274056;32;20100;-56
2023/03/19 08:43:17;;;;;;;3.75;1.90;;;11.90;99.90;;;;;;7276185;32;20669;-57
2023/03/19 08:47:23;;;;;;;6.28;2.20;;;12.00;99.90;;;;;;7271837;32;20750;-56
2023/03/19 08:51:25;;;;;;;3.47;2.17;;;12.10;99.90;;;;;;7273086;32;20214;-57
2023/03/19 08:55:26;;;;;;;3.87;2.10;;;12.20;99.90;;;;;;7273036;32;20100;-56
2023/03/19 08:59:28;;;;;;;3.10;2.08;;;12.30;99.90;;;;;;7279164;32;20153;-57
2023/03/19 09:03:32;;;;;;;2.80;1.75;;;12.50;99.90;;;;;;7279467;32;20112;-56
2023/03/19 09:07:34;;;;;;;3.15;2.22;;;12.70;99.90;;;;;;7276640;32;20179;-56
2023/03/19 09:11:36;;;;;;;3.37;2.37;;;12.90;99.90;;;;;;7277026;32;20134;-56
2023/03/19 09:15:37;;;;;;;3.10;2.28;;;13.00;99.90;;;;;;7278777;32;20166;-56
2023/03/19 09:19:40;;;;;;;3.22;2.20;;;13.00;99.90;;;;;;7284037;32;20140;-56
2023/03/19 09:23:42;;;;;;;3.15;2.33;;;13.00;99.90;;;;;;7278791;32;20198;-55
2023/03/19 09:27:43;;;;;;;4.60;2.60;;;12.90;99.90;;;;;;7278532;32;20104;-56
2023/03/19 09:31:45;;;;;;;3.65;2.37;;;13.00;99.90;;;;;;7280660;32;20189;-56
2023/03/19 09:35:52;;;;;;;2.92;2.33;;;13.10;99.90;;;;;;7276975;32;20851;-57
2023/03/19 09:39:54;;;;;;;2.67;2.10;;;13.20;99.90;;;;;;7276460;32;20182;-57
2023/03/19 09:43:58;;;;;;;5.55;2.45;;;13.20;99.90;;;;;;7276303;32;20193;-57
2023/03/19 09:48:06;;;;;;;3.75;2.12;;;13.20;99.90;;;;;;7284018;32;20190;-57
2023/03/19 09:52:42;;;;;;;3.90;2.22;;;13.20;99.90;;;;;;7279696;32;20498;-56
2023/03/19 09:56:44;;;;;;;3.60;2.37;;;13.40;99.90;;;;;;7280084;32;20134;-57
2023/03/19 10:00:48;;;;;;;5.62;2.42;;;13.50;99.90;;;;;;7279645;32;20194;-56
2023/03/19 10:04:59;;;;;;;4.85;2.53;;;13.50;99.90;;;;;;7278490;32;20128;-57
2023/03/19 10:09:27;;;;;;;3.55;2.00;;;13.40;99.90;;;;;;7275175;32;20203;-57
2023/03/19 10:13:59;;;;;;;3.53;2.37;;;13.50;99.90;;;;;;7278137;32;20096;-57
2023/03/19 10:18:09;;;;;;;3.92;2.58;;;13.80;99.90;;;;;;7283555;32;20199;-56
2023/03/19 10:22:18;;;;;;;5.28;2.10;;;14.20;99.90;;;;;;7276333;32;20557;-56
2023/03/19 10:26:25;;;;;;;4.80;1.95;;;14.30;99.90;;;;;;7277116;32;20502;-57
2023/03/19 10:30:27;;;;;;;;;;;14.20;99.90;;;;;;7276559;32;20560;-56
2023/03/19 10:34:40;;;;;;;3.45;2.70;;;14.20;99.90;;;;;;7285847;32;20073;-57
2023/03/19 10:38:43;;;;;;;5.30;3.60;;;14.20;99.90;;;;;;7277975;32;20141;-56
2023/03/19 10:43:03;;;;;;;3.70;3.20;;;14.10;99.90;;;;;;7261082;32;20123;-57
2023/03/19 10:47:13;;;;;;;4.07;3.37;;;13.90;99.90;;;;;;7277374;32;20108;-57
2023/03/19 10:51:37;;;;;;;3.70;3.33;;;13.60;99.90;;;;;;7278571;32;20236;-57
2023/03/19 10:56:03;;;;;;;4.18;2.00;;;13.70;99.90;;;;;;7280998;32;20497;-57
2023/03/19 11:00:14;;;;;;;1.73;1.48;;;13.50;99.90;;;;;;7275029;32;20194;-57
2023/03/19 11:04:17;;;;;;;5.87;2.92;;;13.30;99.90;;;;;;7278778;32;20104;-56
2023/03/19 11:08:20;;;;;;;7.80;6.30;;;13.00;99.90;;;;;;7274251;32;20108;-56
2023/03/19 11:12:38;;;;;;;6.85;3.28;;;12.70;99.90;;;;;;7278291;32;20571;-56
2023/03/19 11:17:14;;;;;;;5.32;3.10;;;12.40;99.90;;;;;;7279486;32;20104;-57
2023/03/19 11:21:29;;;;;;;5.70;3.90;;;12.20;99.90;;;;;;7275571;32;20126;-56
2023/03/19 11:25:43;;;;;;;5.18;3.72;;;12.20;99.90;;;;;;7273888;32;20303;-56
2023/03/19 11:29:45;;;;;;;6.65;4.50;;;12.40;99.90;;;;;;7276648;32;20096;-57
2023/03/19 11:34:19;;;;;;;6.87;4.85;;;12.40;99.90;;;;;;7281035;32;20131;-55
2023/03/19 11:38:36;;;;;;;6.05;4.93;;;12.50;99.90;;;;;;7274620;32;20218;-57
2023/03/19 11:42:51;;;;;;;;;;;12.50;99.90;;;;;;7274081;32;20255;-55
2023/03/19 11:47:06;;;;;;;6.05;5.40;;;12.50;99.90;;;;;;7279226;32;20093;-55
2023/03/19 11:51:41;;;;;;;8.27;5.18;;;12.50;99.90;;;;;;7275880;32;20096;-57
2023/03/19 11:56:06;;;;;;;6.97;5.12;;;12.60;99.90;;;;;;7275021;32;20134;-56
2023/03/19 12:00:21;;;;;;;7.15;5.57;;;12.70;99.90;;;;;;7272841;32;20119;-57
2023/03/19 12:04:46;;;;;;;7.25;5.60;;;12.70;99.90;;;;;;7273930;32;20146;-57
2023/03/19 12:08:58;;;;;;;6.45;5.45;;;12.70;99.90;;;;;;7278718;32;20490;-57
2023/03/19 12:13:07;;;;;;;6.80;5.80;;;12.80;99.90;;;;;;7277062;32;20199;-57
2023/03/19 12:17:42;;;;;;;7.45;6.03;;;12.80;99.90;;;;;;7274663;32;20880;-57
2023/03/19 12:22:24;;;;;;;7.93;6.20;;;12.80;99.90;;;;;;7278491;32;20149;-57
2023/03/19 12:26:48;;;;;;;6.47;5.20;;;12.70;99.90;;;;;;7273048;32;20458;-57
2023/03/19 12:31:02;;;;;;;7.25;5.82;;;12.70;99.90;;;;;;7279519;32;20639;-57
2023/03/19 12:35:12;;;;;;;5.90;5.35;;;12.60;99.90;;;;;;7286179;32;20141;-57
2023/03/19 12:39:30;;;;;;;6.00;5.35;;;12.60;99.90;;;;;;7283740;32;20732;-57
2023/03/19 12:44:00;;;;;;;5.95;5.32;;;12.90;99.90;;;;;;7282155;32;20310;-57
2023/03/19 12:48:09;;;;;;;5.85;4.35;;;13.60;99.90;;;;;;7281285;32;20755;-57
2023/03/19 12:52:27;;;;;;;4.95;4.45;;;14.10;99.90;;;;;;7282556;32;20336;-56
2023/03/19 12:56:39;;;;;;;7.30;4.45;;;14.30;99.90;;;;;;7277264;32;20171;-57
2023/03/19 13:01:02;;;;;;;5.68;4.55;;;14.40;99.90;;;;;;7280075;32;20123;-57
2023/03/19 13:05:52;;;;;;;4.53;3.90;;;14.40;99.90;;;;;;7283045;32;20157;-57
2023/03/19 13:10:10;;;;;;;3.83;2.62;;;15.30;99.90;;;;;;7244468;32;20548;-58
2023/03/19 13:14:24;;;;;;;3.12;2.35;;;17.40;99.90;;;;;;7283515;32;20178;-58
2023/03/19 13:18:51;;;;;;;3.10;2.30;;;18.50;99.90;;;;;;7276894;32;20185;-58
2023/03/19 13:23:01;;;;;;;3.05;2.03;;;17.90;99.90;;;;;;7282433;32;20191;-58
2023/03/19 13:27:05;;;;;;;4.57;2.60;;;17.00;99.90;;;;;;7279893;32;20400;-57
2023/03/19 13:31:23;;;;;;;3.15;2.47;;;16.50;99.90;;;;;;7287604;32;20573;-57
2023/03/19 13:35:40;;;;;;;5.43;2.62;;;16.30;99.90;;;;;;7285272;32;20584;-57
2023/03/19 13:39:43;;;;;;;4.20;3.20;;;15.50;99.90;;;;;;7282834;32;20097;-59
2023/03/19 13:43:52;;;;;;;4.22;3.62;;;15.30;99.90;;;;;;7281564;32;20096;-57
2023/03/19 13:47:58;;;;;;;3.60;2.47;;;15.10;99.90;;;;;;7278351;32;20757;-57
2023/03/19 13:52:08;;;;;;;3.53;2.50;;;15.20;99.90;;;;;;7279372;32;20160;-57
2023/03/19 13:56:13;;;;;;;4.30;3.00;;;15.00;99.90;;;;;;7278378;32;20746;-58
2023/03/19 14:00:45;;;;;;;5.00;2.87;;;15.30;99.90;;;;;;7278570;32;20190;-57
2023/03/19 14:05:05;;;;;;;5.50;2.83;;;15.50;99.90;;;;;;7275996;32;20658;-57
2023/03/19 14:09:34;;;;;;;4.80;2.85;;;15.50;99.90;;;;;;7276326;32;20231;-57
2023/03/19 14:13:40;;;;;;;4.62;3.00;;;15.20;99.90;;;;;;7284119;32;20175;-57
2023/03/19 14:18:06;;;;;;;4.75;3.00;;;15.50;99.90;;;;;;7279530;32;20210;-57
2023/03/19 14:22:29;;;;;;;3.97;2.67;;;15.40;99.90;;;;;;7276009;32;20247;-58
2023/03/19 14:26:31;;;;;;;5.07;2.85;;;15.40;99.90;;;;;;7269701;32;20116;-57
2023/03/19 14:30:41;;;;;;;5.75;3.35;;;15.30;99.90;;;;;;7279730;32;20105;-57
2023/03/19 14:34:44;;;;;;;5.37;3.15;;;15.00;99.90;;;;;;7280376;32;20181;-57
2023/03/19 14:39:02;;;;;;;5.22;3.37;;;15.00;99.90;;;;;;7275613;32;20182;-57
2023/03/19 14:43:23;;;;;;;3.65;3.05;;;14.90;99.90;;;;;;7278311;32;20571;-56
2023/03/19 14:47:40;;;;;;;5.57;3.85;;;14.90;99.90;;;;;;7276270;32;20108;-56
2023/03/19 14:52:01;;;;;;;5.65;3.33;;;14.70;99.90;;;;;;7278579;32;20310;-56
2023/03/19 14:56:13;;;;;;;6.82;3.90;;;14.60;99.90;;;;;;7276864;32;20210;-56
2023/03/19 15:00:17;;;;;;;5.12;3.80;;;14.50;99.90;;;;;;7282272;32;20118;-57
2023/03/19 15:04:24;;;;;;;6.10;3.60;;;14.30;99.90;;;;;;7277049;32;20244;-57
2023/03/19 15:08:30;;;;;;;8.40;3.55;;;14.30;99.90;;;;;;7274155;32;20214;-57
2023/03/19 15:13:05;;;;;;;4.72;2.58;;;14.30;99.90;;;;;;7278596;32;20195;-57
2023/03/19 15:17:20;;;;;;;4.75;2.17;;;14.40;99.90;;;;;;7276812;32;20127;-57
2023/03/19 15:21:22;;;;;;;4.90;2.17;;;14.20;99.90;;;;;;7280535;32;20195;-57
2023/03/19 15:25:23;;;;;;;3.42;2.22;;;14.20;99.90;;;;;;7284553;32;20194;-57
2023/03/19 15:29:34;;;;;;;4.47;1.98;;;14.10;99.90;;;;;;7275406;32;20113;-57
2023/03/19 15:33:39;;;;;;;3.47;2.00;;;14.00;99.90;;;;;;7278995;32;20735;-57
2023/03/19 15:37:51;;;;;;;4.07;1.45;;;14.00;99.90;;;;;;7280172;32;20097;-58
2023/03/19 15:41:54;;;;;;;3.58;1.40;;;14.10;99.90;;;;;;7280202;32;20142;-57
2023/03/19 15:45:57;;;;;;;3.75;2.10;;;14.20;99.90;;;;;;7275302;32;20118;-59
2023/03/19 15:50:02;;;;;;;3.92;1.70;;;14.20;99.90;;;;;;7276902;32;20092;-59
2023/03/19 15:54:05;;;;;;;2.50;1.95;;;14.10;99.90;;;;;;7279438;32;20131;-58
2023/03/19 15:58:22;;;;;;;4.85;2.28;;;14.00;99.90;;;;;;7276086;32;20125;-57
2023/03/19 16:02:32;;;;;;;4.30;2.15;;;14.00;99.90;;;;;;7273812;32;20423;-56
2023/03/19 16:06:39;;;;;;;1.95;1.60;;;14.00;99.90;;;;;;7285318;32;20912;-56
2023/03/19 16:10:42;;;;;;;4.45;2.30;;;13.90;99.90;;;;;;7288237;32;20814;-57
2023/03/19 16:14:44;;;;;;;3.42;1.80;;;13.80;99.90;;;;;;7285177;32;20126;-57
2023/03/19 16:18:55;;;;;;;2.90;1.65;;;13.70;99.90;;;;;;7283504;32;20141;-56
2023/03/19 16:22:59;;;;;;;3.65;2.17;;;13.60;99.90;;;;;;7285843;32;20136;-56
2023/03/19 16:27:05;;;;;;;5.25;2.37;;;13.50;99.90;;;;;;7280159;32;20205;-56
2023/03/19 16:31:20;;;;;;;5.82;2.40;;;13.50;99.90;;;;;;7268953;32;20152;-57
2023/03/19 16:35:22;;;;;;;7.07;2.87;;;13.50;99.90;;;;;;7292088;32;20161;-57
2023/03/19 16:39:28;;;;;;;7.28;3.87;;;13.30;99.90;;;;;;7287259;32;20206;-57
2023/03/19 16:43:35;;;;;;;6.45;3.47;;;13.40;99.90;;;;;;7293382;32;20210;-57
2023/03/19 16:47:37;;;;;;;6.12;4.18;;;13.50;99.90;;;;;;7288074;32;20135;-57
2023/03/19 16:51:39;;;;;;;6.72;4.37;;;13.40;99.90;;;;;;7279893;32;20184;-57
2023/03/19 16:55:41;;;;;;;7.37;4.22;;;13.20;99.90;;;;;;7274417;32;20205;-56
2023/03/19 16:59:45;;;;;;;4.68;3.28;;;13.00;99.90;;;;;;7290313;32;20129;-57
2023/03/19 17:03:48;;;;;;;4.53;3.53;;;13.00;99.90;;;;;;7288247;32;20210;-57
2023/03/19 17:07:50;;;;;;;8.05;4.03;;;13.00;99.90;;;;;;7284670;32;20119;-57
2023/03/19 17:11:54;;;;;;;6.78;4.03;;;12.90;99.90;;;;;;7286049;32;20114;-55
2023/03/19 17:16:02;;;;;;;5.65;3.87;;;13.00;99.90;;;;;;7285580;32;20154;-56
2023/03/19 17:20:04;;;;;;;7.15;4.07;;;12.80;99.90;;;;;;7286926;32;20211;-58
2023/03/19 17:24:30;;;;;;;5.35;3.65;;;12.70;99.90;;;;;;7287998;32;20123;-57
2023/03/19 17:28:32;;;;;;;7.43;4.07;;;12.60;99.90;;;;;;7282693;32;20886;-58
2023/03/19 17:32:34;;;;;;;3.97;3.33;;;12.60;99.90;;;;;;7289018;32;20105;-58
2023/03/19 17:36:36;;;;;;;5.72;3.80;;;12.50;99.90;;;;;;7286180;32;20334;-58
2023/03/19 17:40:37;;;;;;;6.90;3.70;;;12.40;99.90;;;;;;7289221;32;20698;-58
2023/03/19 17:44:39;;;;;;;6.85;4.35;;;12.40;99.90;;;;;;7289003;32;20116;-57
2023/03/19 17:48:41;;;;;;;6.40;4.47;;;12.40;99.90;;;;;;7282993;32;20588;-58
2023/03/19 17:52:45;;;;;;;6.62;4.40;;;12.40;99.90;;;;;;7281440;32;20132;-57
2023/03/19 17:56:47;;;;;;;7.10;4.55;;;12.40;99.90;;;;;;7282966;32;20127;-56
2023/03/19 18:00:50;;;;;;;5.72;4.20;;;12.40;99.90;;;;;;7284001;32;20128;-56
2023/03/19 18:04:52;;;;;;;6.93;4.55;;;12.50;99.90;;;;;;7284673;32;20195;-56
2023/03/19 18:08:54;;;;;;;6.28;4.47;;;12.50;99.90;;;;;;7281221;32;20281;-56
2023/03/19 18:12:58;;;;;;;6.18;4.68;;;12.40;99.90;;;;;;7288518;32;20203;-56
2023/03/19 18:17:00;;;;;;;7.45;4.47;;;12.50;99.90;;;;;;7278925;32;20281;-56
2023/03/19 18:21:02;;;;;;;6.95;4.18;;;12.40;99.90;;;;;;7280918;32;20156;-56
2023/03/19 18:25:04;;;;;;;4.62;3.50;;;12.30;99.90;;;;;;7279645;32;20096;-56
2023/03/19 18:29:06;;;;;;;5.78;3.65;;;12.20;99.90;;;;;;7274237;32;20269;-56
2023/03/19 18:33:15;;;;;;;5.47;3.80;;;12.20;99.90;;;;;;7273506;32;20252;-56
2023/03/19 18:37:17;;;;;;;5.28;3.90;;;12.10;99.90;;;;;;7286311;32;20482;-56
2023/03/19 18:41:20;;;;;;;5.70;4.05;;;12.10;99.90;;;;;;7271089;32;20131;-55
2023/03/19 18:45:22;;;;;;;4.82;3.37;;;12.00;99.90;;;;;;7278504;32;22298;-56
2023/03/19 18:49:25;;;;;;;4.90;3.85;;;12.00;99.90;;;;;;7283479;32;20146;-56
2023/03/19 18:53:28;;;;;;;6.25;4.00;;;11.90;99.90;;;;;;7276052;32;20227;-57
2023/03/19 18:57:30;;;;;;;4.57;3.60;;;11.80;99.90;;;;;;7271038;32;20128;-56
2023/03/19 19:01:32;;;;;;;4.75;3.70;;;11.90;99.90;;;;;;7284137;32;20298;-57
2023/03/19 19:05:35;;;;;;;5.72;3.90;;;11.70;99.90;;;;;;7274234;32;20473;-56
2023/03/19 19:09:36;;;;;;;4.40;3.33;;;11.60;99.90;;;;;;7279345;32;20171;-56
2023/03/19 19:13:40;;;;;;;4.60;3.35;;;11.60;99.90;;;;;;7280637;32;20116;-56
2023/03/19 19:17:56;;;;;;;3.87;3.12;;;11.50;99.90;;;;;;7280109;32;20100;-56
2023/03/19 19:21:58;;;;;;;5.37;3.20;;;11.60;99.90;;;;;;7279801;32;21284;-56
2023/03/19 19:26:00;;;;;;;5.40;2.62;;;11.70;99.90;;;;;;7280798;32;20187;-56
2023/03/19 19:30:02;;;;;;;4.68;3.00;;;11.50;99.90;;;;;;7275452;32;20257;-57
2023/03/19 19:34:03;;;;;;;4.05;2.90;;;11.40;99.90;;;;;;7277358;32;20118;-56
2023/03/19 19:38:05;;;;;;;3.65;2.80;;;11.40;99.90;;;;;;7267066;32;20118;-56
2023/03/19 19:42:18;;;;;;;5.32;3.72;;;11.30;99.90;;;;;;7274929;32;20219;-56
2023/03/19 19:46:22;;;;;;;3.72;2.80;;;11.30;99.90;;;;;;7279820;32;20215;-56
2023/03/19 19:50:26;;;;;;;4.78;3.50;;;11.30;99.90;;;;;;7285358;32;20217;-56
2023/03/19 19:54:28;;;;;;;4.18;3.37;;;11.30;99.90;;;;;;7279833;32;20153;-56
2023/03/19 19:58:31;;;;;;;7.68;5.85;;;11.20;99.90;;;;;;7275574;32;20167;-56
2023/03/19 20:02:33;;;;;;;19.05;11.48;;;11.20;99.90;;;;;;7273363;32;20768;-54
2023/03/19 20:06:35;;;;;;;26.33;15.20;;;11.30;99.90;;;;;;7276009;32;20104;-55
2023/03/19 20:10:37;;;;;;;28.90;15.35;;;11.40;99.90;;;;;;7279423;32;20732;-55
2023/03/19 20:14:39;;;;;;;24.50;15.05;;;11.30;99.90;;;;;;7282869;32;20534;-55
2023/03/19 20:18:42;;;;;;;25.67;17.15;;;11.20;99.90;;;;;;7276252;32;20118;-56
2023/03/19 20:22:45;;;;;;;29.05;17.65;;;11.30;99.90;;;;;;7275012;32;20108;-55
2023/03/19 20:26:46;;;;;;;27.95;18.45;;;11.20;99.90;;;;;;7274996;32;20179;-55
2023/03/19 20:30:50;;;;;;;31.15;19.75;;;11.20;99.90;;;;;;7280965;32;20706;-55
2023/03/19 20:34:52;;;;;;;25.10;17.83;;;11.10;99.90;;;;;;7281302;32;20549;-55
2023/03/19 20:38:53;;;;;;;23.27;17.50;;;11.00;99.90;;;;;;7272995;32;20209;-55
2023/03/19 20:42:55;;;;;;;26.40;19.27;;;11.00;99.90;;;;;;7280499;32;20100;-55
2023/03/19 20:46:57;;;;;;;27.20;18.83;;;10.90;99.90;;;;;;7278074;32;20168;-55
2023/03/19 20:51:01;;;;;;;24.27;18.52;;;10.90;99.90;;;;;;7276966;32;20167;-54
2023/03/19 20:55:03;;;;;;;28.20;17.35;;;10.80;99.90;;;;;;7279271;32;20257;-54
2023/03/19 20:59:04;;;;;;;24.77;17.52;;;10.80;99.90;;;;;;7281113;32;20216;-55
2023/03/19 21:03:14;;;;;;;20.67;17.50;;;10.80;99.90;;;;;;7283068;32;21535;-54
2023/03/19 21:07:32;;;;;;;21.70;17.12;;;10.60;99.90;;;;;;7283084;32;20121;-55
2023/03/19 21:11:39;;;;;;;23.52;17.80;;;10.60;99.90;;;;;;7288375;32;20101;-54
2023/03/19 21:15:42;;;;;;;28.98;16.05;;;10.70;99.90;;;;;;7284392;32;20129;-55
2023/03/19 21:19:44;;;;;;;29.15;18.30;;;10.70;99.90;;;;;;7288814;32;20234;-54
2023/03/19 21:24:10;;;;;;;27.27;18.48;;;10.60;99.90;;;;;;7287056;32;20168;-54